createdAt,value
2023-04-22T00:00:09.027Z,13.05
2023-04-22T00:02:37.300Z,13.09
2023-04-22T00:05:06.831Z,13.13
2023-04-22T00:07:34.161Z,13.18
2023-04-22T00:10:01.115Z,13.21
2023-04-22T00:12:28.047Z,13.24
2023-04-22T00:14:55.029Z,13.28
2023-04-22T00:17:22.019Z,13.33
2023-04-22T00:19:48.955Z,13.36
2023-04-22T00:22:15.915Z,13.39
2023-04-22T00:24:42.951Z,13.38
2023-04-22T00:27:09.987Z,13.39
2023-04-22T00:29:37.339Z,13.38
2023-04-22T00:32:04.629Z,13.38
2023-04-22T00:34:31.562Z,13.38
2023-04-22T00:36:58.579Z,13.38
2023-04-22T00:39:25.703Z,13.39
2023-04-22T00:41:53.285Z,13.39
2023-04-22T00:44:20.582Z,13.38
2023-04-22T00:46:48.810Z,13.38
2023-04-22T00:49:16.805Z,13.38
2023-04-22T00:51:43.849Z,13.38
2023-04-22T00:54:10.774Z,13.36
2023-04-22T00:56:39.476Z,13.35
2023-04-22T00:59:07.168Z,13.35
2023-04-22T01:01:34.718Z,13.33
2023-04-22T01:04:03.990Z,13.32
2023-04-22T01:06:32.393Z,13.30
2023-04-22T01:08:59.526Z,13.28
2023-04-22T01:11:26.728Z,13.25
2023-04-22T01:13:53.869Z,13.24
2023-04-22T01:16:22.020Z,13.23
2023-04-22T01:18:49.151Z,13.20
2023-04-22T01:21:16.961Z,13.19
2023-04-22T01:23:43.995Z,13.17
2023-04-22T01:26:11.249Z,13.15
2023-04-22T01:28:38.592Z,13.15
2023-04-22T01:31:05.736Z,13.14
2023-04-22T01:33:33.384Z,13.12
2023-04-22T01:36:00.702Z,13.11
2023-04-22T01:38:28.799Z,13.09
2023-04-22T01:40:55.890Z,13.06
2023-04-22T01:43:23.273Z,13.06
2023-04-22T01:45:50.289Z,13.04
2023-04-22T01:48:17.426Z,13.03
2023-04-22T01:50:44.781Z,13.03
2023-04-22T01:53:14.060Z,13.03
2023-04-22T01:55:43.045Z,13.04
2023-04-22T01:58:13.238Z,13.05
2023-04-22T02:00:41.268Z,13.04
2023-04-22T02:03:08.369Z,13.05
2023-04-22T02:05:36.397Z,13.06
2023-04-22T02:08:03.581Z,13.07
2023-04-22T02:10:31.038Z,13.06
2023-04-22T02:12:59.127Z,13.06
2023-04-22T02:15:26.242Z,13.06
2023-04-22T02:17:54.759Z,13.06
2023-04-22T02:20:21.876Z,13.06
2023-04-22T02:22:50.597Z,13.05
2023-04-22T02:25:19.838Z,13.04
2023-04-22T02:27:46.788Z,13.05
2023-04-22T02:30:16.158Z,13.06
2023-04-22T02:32:43.186Z,13.06
2023-04-22T02:35:11.632Z,13.07
2023-04-22T02:37:38.959Z,13.06
2023-04-22T02:40:07.545Z,13.06
2023-04-22T02:42:35.151Z,13.05
2023-04-22T02:45:02.715Z,13.04
2023-04-22T02:47:29.945Z,13.03
2023-04-22T02:49:56.953Z,13.02
2023-04-22T02:52:23.895Z,13.00
2023-04-22T02:54:50.844Z,13.01
2023-04-22T02:57:17.783Z,13.00
2023-04-22T02:59:44.778Z,12.99
2023-04-22T03:02:14.077Z,12.99
2023-04-22T03:05:04.797Z,12.97
2023-04-22T03:07:31.815Z,12.97
2023-04-22T03:09:59.545Z,12.96
2023-04-22T03:12:26.743Z,12.96
2023-04-22T03:14:53.707Z,12.94
2023-04-22T03:17:22.746Z,12.93
2023-04-22T03:19:50.390Z,12.92
2023-04-22T03:22:17.460Z,12.91
2023-04-22T03:24:44.788Z,12.94
2023-04-22T03:27:11.889Z,12.96
2023-04-22T03:29:39.964Z,12.98
2023-04-22T03:32:07.225Z,13.00
2023-04-22T03:34:37.218Z,13.02
2023-04-22T03:37:05.460Z,13.01
2023-04-22T03:39:32.634Z,13.04
2023-04-22T03:41:59.719Z,13.04
2023-04-22T03:44:26.806Z,13.04
2023-04-22T03:46:55.460Z,13.04
2023-04-22T03:49:27.271Z,13.01
2023-04-22T03:51:55.843Z,13.01
2023-04-22T03:54:27.478Z,13.00
2023-04-22T03:56:55.735Z,13.00
2023-04-22T03:59:23.757Z,12.98
2023-04-22T04:01:52.770Z,12.96
2023-04-22T04:04:23.799Z,12.95
2023-04-22T04:06:56.466Z,12.93
2023-04-22T04:09:23.454Z,12.91
2023-04-22T04:11:50.442Z,12.90
2023-04-22T04:14:18.100Z,12.88
2023-04-22T04:16:50.309Z,12.86
2023-04-22T04:19:25.945Z,12.82
2023-04-22T04:21:52.923Z,12.81
2023-04-22T04:24:20.943Z,12.79
2023-04-22T04:26:51.132Z,12.80
2023-04-22T04:29:23.661Z,12.80
2023-04-22T04:32:04.702Z,12.79
2023-04-22T04:34:32.281Z,12.78
2023-04-22T04:36:59.521Z,12.79
2023-04-22T04:39:34.447Z,12.80
2023-04-22T04:42:03.859Z,12.79
2023-04-22T04:44:34.173Z,12.79
2023-04-22T04:47:04.148Z,12.76
2023-04-22T04:49:31.890Z,12.77
2023-04-22T04:52:01.772Z,12.78
2023-04-22T04:54:29.101Z,12.79
2023-04-22T04:56:57.477Z,12.80
2023-04-22T04:59:25.156Z,12.80
2023-04-22T05:01:52.749Z,12.80
2023-04-22T05:04:20.283Z,12.82
2023-04-22T05:06:48.151Z,12.82
2023-04-22T05:09:15.120Z,12.82
2023-04-22T05:11:43.787Z,12.84
2023-04-22T05:14:15.969Z,12.85
2023-04-22T05:16:46.038Z,12.87
2023-04-22T05:19:14.091Z,12.88
2023-04-22T05:21:42.178Z,12.91
2023-04-22T05:24:09.131Z,12.93
2023-04-22T05:26:36.524Z,12.94
2023-04-22T05:29:09.708Z,12.96
2023-04-22T05:31:36.686Z,12.98
2023-04-22T05:34:03.664Z,13.00
2023-04-22T05:36:32.007Z,13.02
2023-04-22T05:38:59.827Z,13.04
2023-04-22T05:41:27.379Z,13.05
2023-04-22T05:43:56.621Z,13.06
2023-04-22T05:46:24.400Z,13.08
2023-04-22T05:48:51.732Z,13.09
2023-04-22T05:51:37.119Z,13.11
2023-04-22T05:54:04.551Z,13.11
2023-04-22T05:56:31.745Z,13.13
2023-04-22T05:58:58.712Z,13.13
2023-04-22T06:01:26.513Z,13.12
2023-04-22T06:03:58.963Z,13.13
2023-04-22T06:06:27.369Z,13.15
2023-04-22T06:08:54.375Z,13.15
2023-04-22T06:11:22.338Z,13.16
2023-04-22T06:13:49.338Z,13.17
2023-04-22T06:16:16.930Z,13.18
2023-04-22T06:18:43.926Z,13.20
2023-04-22T06:21:12.509Z,13.25
2023-04-22T06:23:40.440Z,13.30
2023-04-22T06:26:07.407Z,13.35
2023-04-22T06:28:35.972Z,13.42
2023-04-22T06:31:07.892Z,13.49
2023-04-22T06:33:35.775Z,13.56
2023-04-22T06:36:04.758Z,13.65
2023-04-22T06:38:31.703Z,13.73
2023-04-22T06:41:19.009Z,13.81
2023-04-22T06:43:49.752Z,13.88
2023-04-22T06:46:17.679Z,13.93
2023-04-22T06:49:03.411Z,13.96
2023-04-22T06:51:30.958Z,13.99
2023-04-22T06:53:58.498Z,14.02
2023-04-22T06:56:25.935Z,14.02
2023-04-22T06:58:52.927Z,14.03
2023-04-22T07:01:20.043Z,14.05
2023-04-22T07:03:47.540Z,14.08
2023-04-22T07:06:15.355Z,14.13
2023-04-22T07:08:42.456Z,14.18
2023-04-22T07:11:12.457Z,14.23
2023-04-22T07:13:46.720Z,14.27
2023-04-22T07:16:13.738Z,14.28
2023-04-22T07:18:40.736Z,14.29
2023-04-22T07:21:07.673Z,14.30
2023-04-22T07:23:34.620Z,14.33
2023-04-22T07:26:01.773Z,14.35
2023-04-22T07:28:28.721Z,14.38
2023-04-22T07:30:55.681Z,14.43
2023-04-22T07:33:22.761Z,14.50
2023-04-22T07:35:49.986Z,14.56
2023-04-22T07:38:17.493Z,14.65
2023-04-22T07:40:44.485Z,14.73
2023-04-22T07:43:11.412Z,14.81
2023-04-22T07:45:38.453Z,14.90
2023-04-22T07:48:05.531Z,14.99
2023-04-22T07:50:32.555Z,15.13
2023-04-22T07:52:59.536Z,15.21
2023-04-22T07:55:26.500Z,15.30
2023-04-22T07:57:53.450Z,15.37
2023-04-22T08:00:20.362Z,15.44
2023-04-22T08:02:47.545Z,15.52
2023-04-22T08:05:14.657Z,15.58
2023-04-22T08:07:41.924Z,15.64
2023-04-22T08:10:09.620Z,15.68
2023-04-22T08:12:37.574Z,15.72
2023-04-22T08:15:05.120Z,15.76
2023-04-22T08:17:32.352Z,15.82
2023-04-22T08:19:59.308Z,15.88
2023-04-22T08:22:27.446Z,15.95
2023-04-22T08:24:54.459Z,16.04
2023-04-22T08:27:22.111Z,16.11
2023-04-22T08:29:49.181Z,16.18
2023-04-22T08:32:16.553Z,16.26
2023-04-22T08:34:44.056Z,16.34
2023-04-22T08:37:11.281Z,16.42
2023-04-22T08:39:38.651Z,16.50
2023-04-22T08:42:05.926Z,16.58
2023-04-22T08:44:34.922Z,16.69
2023-04-22T08:47:03.199Z,16.80
2023-04-22T08:49:31.075Z,16.89
2023-04-22T08:51:58.031Z,17.00
2023-04-22T08:54:24.995Z,17.11
2023-04-22T08:56:52.332Z,17.19
2023-04-22T08:59:22.301Z,17.27
2023-04-22T09:01:56.116Z,17.38
2023-04-22T09:04:23.402Z,17.51
2023-04-22T09:06:50.337Z,17.62
2023-04-22T09:09:17.344Z,17.76
2023-04-22T09:11:44.380Z,17.87
2023-04-22T09:14:11.344Z,18.00
2023-04-22T09:16:44.760Z,18.09
2023-04-22T09:19:13.133Z,18.17
2023-04-22T09:21:41.405Z,18.24
2023-04-22T09:24:12.377Z,18.29
2023-04-22T09:26:41.958Z,18.33
2023-04-22T09:29:14.650Z,18.39
2023-04-22T09:31:41.805Z,18.45
2023-04-22T09:34:12.184Z,18.52
2023-04-22T09:36:39.376Z,18.58
2023-04-22T09:39:08.194Z,18.67
2023-04-22T09:41:40.017Z,18.76
2023-04-22T09:44:20.520Z,18.82
2023-04-22T09:46:51.047Z,18.89
2023-04-22T09:49:18.083Z,18.93
2023-04-22T09:51:45.045Z,19.00
2023-04-22T09:54:12.182Z,19.07
2023-04-22T09:56:48.157Z,19.19
2023-04-22T09:59:29.490Z,19.31
2023-04-22T10:02:00.728Z,19.41
2023-04-22T10:04:28.380Z,19.48
2023-04-22T10:06:56.164Z,19.53
2023-04-22T10:09:24.975Z,19.58
2023-04-22T10:11:55.575Z,19.72
2023-04-22T10:14:22.710Z,19.82
2023-04-22T10:16:56.604Z,19.92
2023-04-22T10:19:26.011Z,20.04
2023-04-22T10:21:57.657Z,20.14
2023-04-22T10:24:34.185Z,20.21
2023-04-22T10:27:10.573Z,20.32
2023-04-22T10:29:40.834Z,20.42
2023-04-22T10:32:11.590Z,20.52
2023-04-22T10:34:39.664Z,20.57
2023-04-22T10:37:11.487Z,20.62
2023-04-22T10:39:42.826Z,20.66
2023-04-22T10:42:13.172Z,20.68
2023-04-22T10:44:53.659Z,20.72
2023-04-22T10:47:37.901Z,20.78
2023-04-22T10:50:24.000Z,20.86
2023-04-22T10:53:19.912Z,20.99
2023-04-22T10:55:54.057Z,21.10
2023-04-22T10:58:23.894Z,21.24
2023-04-22T11:00:59.623Z,21.45
2023-04-22T11:03:30.716Z,21.67
2023-04-22T11:06:18.619Z,21.86
2023-04-22T11:08:47.443Z,22.10
2023-04-22T11:11:16.514Z,22.33
2023-04-22T11:13:44.022Z,22.54
2023-04-22T11:16:11.329Z,22.70
2023-04-22T11:18:38.701Z,22.94
2023-04-22T11:21:08.386Z,23.10
2023-04-22T11:23:36.638Z,23.27
2023-04-22T11:26:06.933Z,23.36
2023-04-22T11:28:33.831Z,23.48
2023-04-22T11:31:07.576Z,23.71
2023-04-22T11:33:35.002Z,23.96
2023-04-22T11:36:02.305Z,24.17
2023-04-22T11:38:29.262Z,24.38
2023-04-22T11:40:59.704Z,24.50
2023-04-22T11:43:26.818Z,24.49
2023-04-22T11:45:56.063Z,24.57
2023-04-22T11:48:23.720Z,24.66
2023-04-22T11:51:13.753Z,24.71
2023-04-22T11:53:51.249Z,24.71
2023-04-22T11:56:18.176Z,24.60
2023-04-22T11:58:45.159Z,24.45
2023-04-22T12:01:13.930Z,24.28
2023-04-22T12:03:41.090Z,24.22
2023-04-22T12:06:08.237Z,24.30
2023-04-22T12:08:42.329Z,24.33
2023-04-22T12:11:11.604Z,24.40
2023-04-22T12:13:38.386Z,24.58
2023-04-22T12:16:14.652Z,24.71
2023-04-22T12:18:49.476Z,24.77
2023-04-22T12:21:24.586Z,24.69
2023-04-22T12:23:58.833Z,24.50
2023-04-22T12:26:27.822Z,24.30
2023-04-22T12:29:00.411Z,24.16
2023-04-22T12:31:28.167Z,23.99
2023-04-22T12:33:56.321Z,23.77
2023-04-22T12:36:24.068Z,23.58
2023-04-22T12:38:51.287Z,23.37
2023-04-22T12:41:18.386Z,23.19
2023-04-22T12:43:45.300Z,23.04
2023-04-22T12:46:12.313Z,22.92
2023-04-22T12:48:39.347Z,22.80
2023-04-22T12:51:06.992Z,22.67
2023-04-22T12:53:34.702Z,22.59
2023-04-22T12:56:01.760Z,22.58
2023-04-22T12:58:28.891Z,22.48
2023-04-22T13:00:55.993Z,22.43
2023-04-22T13:03:23.163Z,22.36
2023-04-22T13:05:50.827Z,22.28
2023-04-22T13:08:17.884Z,22.24
2023-04-22T13:10:44.812Z,22.16
2023-04-22T13:15:41.620Z,22.06
2023-04-22T13:18:08.703Z,21.99
2023-04-22T13:20:36.035Z,21.91
2023-04-22T13:23:04.565Z,21.82
2023-04-22T13:25:31.729Z,21.74
2023-04-22T13:27:58.704Z,21.69
2023-04-22T13:30:25.764Z,21.64
2023-04-22T13:32:52.977Z,21.59
2023-04-22T13:35:20.040Z,21.49
2023-04-22T13:37:47.111Z,21.42
2023-04-22T13:40:14.278Z,21.38
2023-04-22T13:42:41.822Z,21.30
2023-04-22T13:45:09.520Z,21.23
2023-04-22T13:47:36.582Z,21.19
2023-04-22T13:50:05.518Z,21.14
2023-04-22T13:52:32.822Z,21.12
2023-04-22T13:55:03.207Z,21.09
2023-04-22T13:57:30.482Z,21.09
2023-04-22T13:59:57.605Z,21.08
2023-04-22T14:02:24.617Z,21.06
2023-04-22T14:04:51.963Z,21.00
2023-04-22T14:07:18.928Z,20.97
2023-04-22T14:09:45.878Z,20.94
2023-04-22T14:12:13.313Z,20.90
2023-04-22T14:14:40.277Z,20.91
2023-04-22T14:17:08.171Z,20.91
2023-04-22T14:19:38.706Z,20.94
2023-04-22T14:22:06.517Z,20.97
2023-04-22T14:24:33.638Z,21.00
2023-04-22T14:27:03.457Z,21.04
2023-04-22T14:29:30.942Z,21.08
2023-04-22T14:31:58.416Z,21.14
2023-04-22T14:34:26.904Z,21.19
2023-04-22T14:36:54.201Z,21.21
2023-04-22T14:39:21.368Z,21.23
2023-04-22T14:41:48.937Z,21.27
2023-04-22T14:44:16.529Z,21.31
2023-04-22T14:46:43.697Z,21.34
2023-04-22T14:49:10.743Z,21.35
2023-04-22T14:51:37.744Z,21.35
2023-04-22T14:54:05.175Z,21.34
2023-04-22T14:56:32.120Z,21.34
2023-04-22T14:58:59.041Z,21.30
2023-04-22T15:01:26.048Z,21.30
2023-04-22T15:03:53.325Z,21.28
2023-04-22T15:06:20.531Z,21.27
2023-04-22T15:08:47.570Z,21.27
2023-04-22T15:11:14.470Z,21.23
2023-04-22T15:13:41.453Z,21.21
2023-04-22T15:16:08.463Z,21.21
2023-04-22T15:18:35.717Z,21.19
2023-04-22T15:21:03.320Z,21.18
2023-04-22T15:23:30.350Z,21.18
2023-04-22T15:25:57.352Z,21.17
2023-04-22T15:28:24.469Z,21.17
2023-04-22T15:30:51.479Z,21.18
2023-04-22T15:33:18.461Z,21.19
2023-04-22T15:35:47.512Z,21.20
2023-04-22T15:38:14.441Z,21.22
2023-04-22T15:40:41.406Z,21.25
2023-04-22T15:43:08.471Z,21.25
2023-04-22T15:45:35.735Z,21.26
2023-04-22T15:48:03.043Z,21.26
2023-04-22T15:50:29.991Z,21.25
2023-04-22T15:52:56.982Z,21.21
2023-04-22T15:55:24.037Z,21.19
2023-04-22T15:57:51.017Z,21.16
2023-04-22T16:00:18.222Z,21.13
2023-04-22T16:02:46.395Z,21.11
2023-04-22T16:05:14.342Z,21.07
2023-04-22T16:07:41.377Z,21.03
2023-04-22T16:10:09.423Z,20.97
2023-04-22T16:12:39.240Z,20.93
2023-04-22T16:15:07.347Z,20.86
2023-04-22T16:17:34.527Z,20.80
2023-04-22T16:20:01.839Z,20.76
2023-04-22T16:22:28.810Z,20.71
2023-04-22T16:24:55.737Z,20.66
2023-04-22T16:27:22.749Z,20.60
2023-04-22T16:29:49.727Z,20.56
2023-04-22T16:32:16.652Z,20.52
2023-04-22T16:34:43.591Z,20.47
2023-04-22T16:37:10.575Z,20.43
2023-04-22T16:39:37.775Z,20.38
2023-04-22T16:42:04.856Z,20.35
2023-04-22T16:44:31.795Z,20.29
2023-04-22T16:46:58.716Z,20.25
2023-04-22T16:49:25.685Z,20.21
2023-04-22T16:51:52.845Z,20.17
2023-04-22T16:54:20.266Z,20.14
2023-04-22T16:56:47.271Z,20.12
2023-04-22T16:59:14.626Z,20.10
2023-04-22T17:01:41.984Z,20.09
2023-04-22T17:04:09.355Z,20.07
2023-04-22T17:06:39.203Z,20.07
2023-04-22T17:09:07.406Z,20.05
2023-04-22T17:11:34.354Z,20.02
2023-04-22T17:14:05.186Z,19.97
2023-04-22T17:16:32.330Z,19.90
2023-04-22T17:18:59.383Z,19.86
2023-04-22T17:21:27.077Z,19.82
2023-04-22T17:23:54.417Z,19.78
2023-04-22T17:26:21.795Z,19.76
2023-04-22T17:28:48.753Z,19.75
2023-04-22T17:31:15.769Z,19.73
2023-04-22T17:33:42.807Z,19.72
2023-04-22T17:36:09.796Z,19.71
2023-04-22T17:38:36.753Z,19.68
2023-04-22T17:41:04.182Z,19.64
2023-04-22T17:43:31.250Z,19.61
2023-04-22T17:45:58.302Z,19.56
2023-04-22T17:48:25.490Z,19.50
2023-04-22T17:50:52.599Z,19.44
2023-04-22T17:53:19.606Z,19.39
2023-04-22T17:55:46.515Z,19.32
2023-04-22T17:58:13.460Z,19.26
2023-04-22T18:00:40.504Z,19.21
2023-04-22T18:03:07.633Z,19.16
2023-04-22T18:05:34.805Z,19.12
2023-04-22T18:08:02.811Z,19.10
2023-04-22T18:10:30.766Z,19.03
2023-04-22T18:12:57.776Z,18.98
2023-04-22T18:15:24.779Z,18.95
2023-04-22T18:17:51.887Z,18.91
2023-04-22T18:20:19.666Z,18.86
2023-04-22T18:22:49.135Z,18.81
2023-04-22T18:25:16.383Z,18.76
2023-04-22T18:27:43.968Z,18.73
2023-04-22T18:30:11.216Z,18.69
2023-04-22T18:32:38.311Z,18.67
2023-04-22T18:35:06.358Z,18.63
2023-04-22T18:37:34.573Z,18.60
2023-04-22T18:40:02.437Z,18.55
2023-04-22T18:42:30.044Z,18.52
2023-04-22T18:44:57.024Z,18.48
2023-04-22T18:47:24.015Z,18.43
2023-04-22T18:49:51.171Z,18.41
2023-04-22T18:52:18.362Z,18.38
2023-04-22T18:54:45.454Z,18.35
2023-04-22T18:57:12.660Z,18.32
2023-04-22T18:59:39.719Z,18.31
2023-04-22T19:02:06.930Z,18.27
2023-04-22T19:04:34.023Z,18.26
2023-04-22T19:07:01.087Z,18.24
2023-04-22T19:09:29.023Z,18.22
2023-04-22T19:11:56.195Z,18.20
2023-04-22T19:14:23.189Z,18.16
2023-04-22T19:16:50.332Z,18.15
2023-04-22T19:19:17.799Z,18.12
2023-04-22T19:21:44.997Z,18.09
2023-04-22T19:24:14.184Z,18.07
2023-04-22T19:26:41.286Z,18.04
2023-04-22T19:29:08.647Z,18.00
2023-04-22T19:31:35.692Z,17.97
2023-04-22T19:34:03.034Z,17.92
2023-04-22T19:36:30.044Z,17.91
2023-04-22T19:38:56.975Z,17.89
2023-04-22T19:41:24.042Z,17.88
2023-04-22T19:43:51.151Z,17.84
2023-04-22T19:46:18.227Z,17.77
2023-04-22T19:48:45.649Z,17.69
2023-04-22T19:51:13.440Z,17.60
2023-04-22T19:53:41.420Z,17.51
2023-04-22T19:56:11.884Z,17.43
2023-04-22T19:58:39.546Z,17.35
2023-04-22T20:01:06.744Z,17.27
2023-04-22T20:03:34.215Z,17.20
2023-04-22T20:06:01.918Z,17.13
2023-04-22T20:08:29.345Z,17.05
2023-04-22T20:10:58.129Z,16.96
2023-04-22T20:13:25.917Z,16.88
2023-04-22T20:15:53.371Z,16.80
2023-04-22T20:18:20.508Z,16.74
2023-04-22T20:20:48.543Z,16.70
2023-04-22T20:23:17.408Z,16.65
2023-04-22T20:25:45.135Z,16.60
2023-04-22T20:28:12.569Z,16.54
2023-04-22T20:30:40.167Z,16.51
2023-04-22T20:33:07.569Z,16.48
2023-04-22T20:35:35.773Z,16.44
2023-04-22T20:38:03.443Z,16.40
2023-04-22T20:40:30.579Z,16.34
2023-04-22T20:42:58.728Z,16.29
2023-04-22T20:45:27.132Z,16.23
2023-04-22T20:47:54.211Z,16.19
2023-04-22T20:50:21.382Z,16.15
2023-04-22T20:52:48.926Z,16.12
2023-04-22T20:55:16.947Z,16.08
2023-04-22T20:57:44.222Z,16.03
2023-04-22T21:00:11.887Z,15.99
2023-04-22T21:02:40.488Z,15.98
2023-04-22T21:05:09.958Z,15.96
2023-04-22T21:07:43.250Z,15.93
2023-04-22T21:10:10.932Z,15.89
2023-04-22T21:12:38.295Z,15.86
2023-04-22T21:15:06.369Z,15.83
2023-04-22T21:17:35.146Z,15.82
2023-04-22T21:20:05.350Z,15.82
2023-04-22T21:22:32.600Z,15.81
2023-04-22T21:25:00.211Z,15.81
2023-04-22T21:27:27.574Z,15.79
2023-04-22T21:29:55.254Z,15.76
2023-04-22T21:32:22.215Z,15.71
2023-04-22T21:34:49.188Z,15.67
2023-04-22T21:37:16.218Z,15.60
2023-04-22T21:39:43.186Z,15.55
2023-04-22T21:42:10.465Z,15.50
2023-04-22T21:44:38.293Z,15.45
2023-04-22T21:47:06.265Z,15.42
2023-04-22T21:49:33.229Z,15.39
2023-04-22T21:52:00.290Z,15.34
2023-04-22T21:54:27.258Z,15.25
2023-04-22T21:56:54.222Z,15.18
2023-04-22T21:59:21.243Z,15.15
2023-04-22T22:01:48.226Z,15.10
2023-04-22T22:04:16.330Z,15.06
2023-04-22T22:06:45.295Z,15.02
2023-04-22T22:09:13.659Z,15.01
2023-04-22T22:11:40.625Z,14.99
2023-04-22T22:14:07.638Z,14.95
2023-04-22T22:16:34.854Z,14.93
2023-04-22T22:19:04.369Z,14.90
2023-04-22T22:21:32.675Z,14.88
2023-04-22T22:23:59.635Z,14.87
2023-04-22T22:26:27.131Z,14.84
2023-04-22T22:28:54.258Z,14.83
2023-04-22T22:31:21.492Z,14.80
2023-04-22T22:33:48.564Z,14.77
2023-04-22T22:36:16.129Z,14.75
2023-04-22T22:38:43.141Z,14.74
2023-04-22T22:41:10.111Z,14.72
2023-04-22T22:43:37.098Z,14.69
2023-04-22T22:46:04.173Z,14.64
2023-04-22T22:48:31.517Z,14.58
2023-04-22T22:50:58.611Z,14.52
2023-04-22T22:53:25.589Z,14.47
2023-04-22T22:55:52.555Z,14.42
2023-04-22T22:58:19.476Z,14.39
2023-04-22T23:00:46.446Z,14.36
2023-04-22T23:03:13.763Z,14.33
2023-04-22T23:05:41.052Z,14.30
2023-04-22T23:08:08.023Z,14.26
2023-04-22T23:10:34.958Z,14.25
2023-04-22T23:13:02.091Z,14.23
2023-04-22T23:15:29.294Z,14.20
2023-04-22T23:17:56.377Z,14.17
2023-04-22T23:20:24.274Z,14.16
2023-04-22T23:22:51.789Z,14.15
2023-04-22T23:25:19.069Z,14.15
2023-04-22T23:27:46.521Z,14.14
2023-04-22T23:30:13.972Z,14.13
2023-04-22T23:32:42.594Z,14.13
2023-04-22T23:35:12.531Z,14.13
2023-04-22T23:37:45.371Z,14.16
2023-04-22T23:40:13.175Z,14.16
2023-04-22T23:42:40.268Z,14.17
2023-04-22T23:45:08.114Z,14.17
2023-04-22T23:47:35.223Z,14.17
2023-04-22T23:50:03.299Z,14.17
2023-04-22T23:52:30.368Z,14.16
2023-04-22T23:54:58.053Z,14.17
2023-04-22T23:57:25.296Z,14.17
2023-04-22T23:59:52.613Z,14.17
